Time;durP1;ratioP1;P1;durP2;ratioP2;P2;SDS_P1;SDS_P2;PMS_P1;PMS_P2;Temp;Humidity;BMP_temperature;BMP_pressure;BME280_temperature;BME280_humidity;BME280_pressure;Samples;Min_cycle;Max_cycle;Signal;HPM_P1;HPM_P2
2022/11/08 00:02:14;;;;;;;;;;;;;;;;;;5174636;27;1847;-45
2022/11/08 00:04:41;;;;;;;;;;;;;;;;;;5174400;27;2265;-47
2022/11/08 00:15:26;;;;;;;;;;;;;;;;;;5174611;27;1651;-45
2022/11/08 00:17:53;;;;;;;;;;;;;;;;;;5174240;27;2073;-49
2022/11/08 00:20:20;;;;;;;;;;;;;;;;;;5174322;27;1493;-44
2022/11/08 00:22:47;;;;;;;;;;;;;;;;;;5174013;27;2144;-46
2022/11/08 00:25:14;;;;;;;;;;;;;;;;;;5174330;27;2288;-46
2022/11/08 00:27:41;;;;;;;;;;;;;;;;;;5174294;27;1707;-46
2022/11/08 00:30:08;;;;;;;;;;;;;;;;;;5174070;27;2199;-48
2022/11/08 00:32:35;;;;;;;;;;;;;;;;;;5174264;27;1816;-45
2022/11/08 00:35:02;;;;;;;;;;;;;;;;;;5174150;27;2072;-47
2022/11/08 00:37:29;;;;;;;;;;;;;;;;;;5174216;27;1963;-47
2022/11/08 00:39:56;;;;;;;;;;;;;;;;;;5174248;27;2026;-46
2022/11/08 00:42:23;;;;;;;;;;;;;;;;;;5173903;27;1992;-46
2022/11/08 00:44:51;;;;;;;;;;;;;;;;;;5173831;27;1746;-45
2022/11/08 00:47:18;;;;;;;;;;;;;;;;;;5174003;27;1913;-46
2022/11/08 00:49:44;;;;;;;;;;;;;;;;;;5173692;27;2016;-45
2022/11/08 00:52:11;;;;;;;;;;;;;;;;;;5156352;27;2298;-46
2022/11/08 00:54:38;;;;;;;;;;;;;;;;;;5152920;27;1799;-46
2022/11/08 00:57:05;;;;;;;;;;;;;;;;;;5152818;27;1845;-47
2022/11/08 00:59:32;;;;;;;;;;;;;;;;;;5152873;27;1919;-45
2022/11/08 01:01:59;;;;;;;;;;;;;;;;;;5153152;27;2251;-46
2022/11/08 01:04:27;;;;;;;;;;;;;;;;;;5152482;27;1747;-46
2022/11/08 01:06:53;;;;;;;;;;;;;;;;;;5152405;27;2290;-48
2022/11/08 01:09:20;;;;;;;;;;;;;;;;;;5152909;27;1905;-47
2022/11/08 01:11:48;;;;;;;;;;;;;;;;;;5152766;27;2138;-45
2022/11/08 01:14:15;;;;;;;;;;;;;;;;;;5152762;27;2148;-45
2022/11/08 01:16:42;;;;;;;;;;;;;;;;;;5152691;27;1993;-46
2022/11/08 01:19:13;;;;;;;;;;;;;;;;;;5133816;27;1848;-45
2022/11/08 01:21:40;;;;;;;;;;;;;;;;;;5152845;27;2262;-46
2022/11/08 01:24:08;;;;;;;;;;;;;;;;;;5152807;27;1704;-46
2022/11/08 01:26:35;;;;;;;;;;;;;;;;;;5155509;27;2018;-45
2022/11/08 01:29:02;;;;;;;;;;;;;;;;;;5138593;27;2211;-44
2022/11/08 01:31:29;;;;;;;;;;;;;;;;;;5156644;27;2127;-45
2022/11/08 01:33:57;;;;;;;;;;;;;;;;;;5138405;27;1637;-47
2022/11/08 01:36:25;;;;;;;;;;;;;;;;;;5156722;27;2019;-45
2022/11/08 01:38:52;;;;;;;;;;;;;;;;;;5156451;27;2026;-47
2022/11/08 01:41:21;;;;;;;;;;;;;;;;;;5156563;27;1725;-48
2022/11/08 01:43:57;;;;;;;;;;;;;;;;;;5156254;27;2005;-47
2022/11/08 01:46:31;;;;;;;;;;;;;;;;;;5156586;27;2083;-46
2022/11/08 01:48:59;;;;;;;;;;;;;;;;;;5156299;27;1968;-46
2022/11/08 01:51:28;;;;;;;;;;;;;;;;;;5167241;27;2143;-46
2022/11/08 01:53:55;;;;;;;;;;;;;;;;;;5177310;27;1549;-43
2022/11/08 01:56:23;;;;;;;;;;;;;;;;;;5176786;27;2200;-46
2022/11/08 01:58:51;;;;;;;;;;;;;;;;;;5176721;27;1960;-47
2022/11/08 02:01:18;;;;;;;;;;;;;;;;;;5177147;27;2231;-46
2022/11/08 02:03:46;;;;;;;;;;;;;;;;;;5176628;27;1935;-45
2022/11/08 02:06:14;;;;;;;;;;;;;;;;;;5177078;27;1976;-46
2022/11/08 02:08:41;;;;;;;;;;;;;;;;;;5177025;27;2004;-46
2022/11/08 02:11:11;;;;;;;;;;;;;;;;;;5176780;27;2145;-48
2022/11/08 02:13:39;;;;;;;;;;;;;;;;;;5176812;27;1834;-45
2022/11/08 02:16:10;;;;;;;;;;;;;;;;;;5176983;27;2290;-49
2022/11/08 02:18:37;;;;;;;;;;;;;;;;;;5176865;27;2114;-46
2022/11/08 02:21:10;;;;;;;;;;;;;;;;;;5177285;27;1921;-46
2022/11/08 02:23:40;;;;;;;;;;;;;;;;;;5176549;27;1472;-45
2022/11/08 02:26:08;;;;;;;;;;;;;;;;;;5176232;27;2162;-44
2022/11/08 02:28:38;;;;;;;;;;;;;;;;;;5176855;27;2064;-44
2022/11/08 02:31:09;;;;;;;;;;;;;;;;;;5176681;27;2187;-46
2022/11/08 02:33:37;;;;;;;;;;;;;;;;;;5176744;27;2290;-46
2022/11/08 02:36:04;;;;;;;;;;;;;;;;;;5175963;27;2064;-47
2022/11/08 02:38:32;;;;;;;;;;;;;;;;;;5176118;27;1753;-48
2022/11/08 02:40:59;;;;;;;;;;;;;;;;;;5157391;27;1880;-47
2022/11/08 02:43:26;;;;;;;;;;;;;;;;;;5176385;27;1994;-47
2022/11/08 02:45:53;;;;;;;;;;;;;;;;;;5176592;27;1917;-46
2022/11/08 02:48:20;;;;;;;;;;;;;;;;;;5176032;27;1954;-47
2022/11/08 02:50:47;;;;;;;;;;;;;;;;;;5170085;27;2239;-45
2022/11/08 02:53:14;;;;;;;;;;;;;;;;;;5155252;27;1844;-45
2022/11/08 02:55:42;;;;;;;;;;;;;;;;;;5155447;27;1831;-46
2022/11/08 02:58:09;;;;;;;;;;;;;;;;;;5154890;27;1950;-45
2022/11/08 03:00:37;;;;;;;;;;;;;;;;;;5155471;27;1575;-45
2022/11/08 03:03:04;;;;;;;;;;;;;;;;;;5154776;27;2248;-47
2022/11/08 03:05:31;;;;;;;;;;;;;;;;;;5154828;27;1793;-46
2022/11/08 03:07:58;;;;;;;;;;;;;;;;;;5154885;27;1910;-45
2022/11/08 03:10:26;;;;;;;;;;;;;;;;;;5154868;27;1929;-46
2022/11/08 03:12:54;;;;;;;;;;;;;;;;;;5154941;27;1727;-47
2022/11/08 03:15:21;;;;;;;;;;;;;;;;;;5154701;27;2005;-45
2022/11/08 03:17:48;;;;;;;;;;;;;;;;;;5154554;27;2070;-45
2022/11/08 03:20:15;;;;;;;;;;;;;;;;;;5154633;27;1503;-46
2022/11/08 03:22:42;;;;;;;;;;;;;;;;;;5154782;27;1848;-46
2022/11/08 03:25:09;;;;;;;;;;;;;;;;;;5154778;27;2261;-46
2022/11/08 03:27:36;;;;;;;;;;;;;;;;;;5154376;27;1905;-49
2022/11/08 03:30:05;;;;;;;;;;;;;;;;;;5171130;27;2094;-46
2022/11/08 03:32:32;;;;;;;;;;;;;;;;;;5156593;27;1903;-46
2022/11/08 03:34:59;;;;;;;;;;;;;;;;;;5175394;27;1965;-44
2022/11/08 03:37:26;;;;;;;;;;;;;;;;;;5175314;27;1599;-46
2022/11/08 03:39:54;;;;;;;;;;;;;;;;;;5175121;27;1230;-46
2022/11/08 03:42:22;;;;;;;;;;;;;;;;;;5174979;27;2091;-45
2022/11/08 03:44:49;;;;;;;;;;;;;;;;;;5175059;27;1650;-48
2022/11/08 03:47:16;;;;;;;;;;;;;;;;;;5174569;27;1906;-45
2022/11/08 03:49:43;;;;;;;;;;;;;;;;;;5174441;27;2427;-45
2022/11/08 03:52:10;;;;;;;;;;;;;;;;;;5138812;27;2353;-47
2022/11/08 03:54:37;;;;;;;;;;;;;;;;;;5153963;27;2007;-45
2022/11/08 03:57:04;;;;;;;;;;;;;;;;;;5154591;27;2264;-46
2022/11/08 03:59:31;;;;;;;;;;;;;;;;;;5153560;27;2115;-44
2022/11/08 04:01:58;;;;;;;;;;;;;;;;;;5153915;27;2008;-47
2022/11/08 04:04:26;;;;;;;;;;;;;;;;;;5153566;27;1709;-45
2022/11/08 04:06:53;;;;;;;;;;;;;;;;;;5135258;27;2151;-45
2022/11/08 04:09:20;;;;;;;;;;;;;;;;;;5153523;27;1798;-45
2022/11/08 04:21:17;;;;;;;;;;;;;;;;;;5153737;27;2130;-46
2022/11/08 04:22:52;;;;;;;;;;;;;;;;;;5153630;27;1814;-46
2022/11/08 04:25:19;;;;;;;;;;;;;;;;;;5152584;27;2078;-44
2022/11/08 04:27:47;;;;;;;;;;;;;;;;;;5153349;27;2219;-48
2022/11/08 04:30:14;;;;;;;;;;;;;;;;;;5153415;27;1990;-46
2022/11/08 04:32:41;;;;;;;;;;;;;;;;;;5153307;27;1719;-45
2022/11/08 04:35:09;;;;;;;;;;;;;;;;;;5153450;27;1957;-45
2022/11/08 04:37:36;;;;;;;;;;;;;;;;;;5153021;27;1685;-47
2022/11/08 04:40:03;;;;;;;;;;;;;;;;;;5134850;27;1993;-48
2022/11/08 04:42:30;;;;;;;;;;;;;;;;;;5153148;27;1497;-48
2022/11/08 04:44:57;;;;;;;;;;;;;;;;;;5153104;27;2086;-48
2022/11/08 04:47:24;;;;;;;;;;;;;;;;;;5152731;27;1925;-47
2022/11/08 04:49:51;;;;;;;;;;;;;;;;;;5152941;27;1984;-46
2022/11/08 04:52:18;;;;;;;;;;;;;;;;;;5171486;27;2054;-44
2022/11/08 04:54:46;;;;;;;;;;;;;;;;;;5173906;27;1610;-45
2022/11/08 04:57:13;;;;;;;;;;;;;;;;;;5173814;27;2233;-45
2022/11/08 04:59:40;;;;;;;;;;;;;;;;;;5173338;27;1608;-45
2022/11/08 05:02:07;;;;;;;;;;;;;;;;;;5173702;27;1907;-47
2022/11/08 05:04:34;;;;;;;;;;;;;;;;;;5173652;27;2273;-47
2022/11/08 05:07:01;;;;;;;;;;;;;;;;;;5173826;27;1901;-49
2022/11/08 05:09:28;;;;;;;;;;;;;;;;;;5173479;27;2146;-43
2022/11/08 05:11:55;;;;;;;;;;;;;;;;;;5173769;27;2094;-45
2022/11/08 05:14:22;;;;;;;;;;;;;;;;;;5173486;27;1628;-47
2022/11/08 05:16:49;;;;;;;;;;;;;;;;;;5173792;27;2065;-47
2022/11/08 05:23:22;;;;;;;;;;;;;;;;;;5173821;27;2214;-45
2022/11/08 05:24:49;;;;;;;;;;;;;;;;;;5173466;27;1596;-45
2022/11/08 05:27:16;;;;;;;;;;;;;;;;;;5173525;27;1999;-48
2022/11/08 05:29:43;;;;;;;;;;;;;;;;;;5173543;27;1487;-45
2022/11/08 05:32:10;;;;;;;;;;;;;;;;;;5173340;27;2122;-43
2022/11/08 05:34:37;;;;;;;;;;;;;;;;;;5173625;27;1863;-46
2022/11/08 05:37:04;;;;;;;;;;;;;;;;;;5173339;27;2292;-44
2022/11/08 05:39:31;;;;;;;;;;;;;;;;;;5173250;27;1930;-45
2022/11/08 05:41:58;;;;;;;;;;;;;;;;;;5173123;27;1833;-49
2022/11/08 05:44:25;;;;;;;;;;;;;;;;;;5173031;27;2127;-46
2022/11/08 05:46:52;;;;;;;;;;;;;;;;;;5173079;27;1901;-46
2022/11/08 05:49:19;;;;;;;;;;;;;;;;;;5173444;27;1833;-47
2022/11/08 05:51:46;;;;;;;;;;;;;;;;;;5159123;27;1852;-46
2022/11/08 05:54:14;;;;;;;;;;;;;;;;;;5152243;27;1739;-46
2022/11/08 05:56:41;;;;;;;;;;;;;;;;;;5152571;27;1968;-46
2022/11/08 05:59:08;;;;;;;;;;;;;;;;;;5152023;27;2342;-46
2022/11/08 06:01:35;;;;;;;;;;;;;;;;;;5133637;27;1986;-46
2022/11/08 06:04:03;;;;;;;;;;;;;;;;;;5152160;27;2179;-46
2022/11/08 06:06:30;;;;;;;;;;;;;;;;;;5152134;27;2080;-45
2022/11/08 06:08:57;;;;;;;;;;;;;;;;;;5166817;27;2010;-45
2022/11/08 06:11:25;;;;;;;;;;;;;;;;;;5173899;27;1646;-46
2022/11/08 06:13:53;;;;;;;;;;;;;;;;;;5176687;27;2127;-46
2022/11/08 06:16:21;;;;;;;;;;;;;;;;;;5176832;27;1842;-43
2022/11/08 06:18:48;;;;;;;;;;;;;;;;;;5176747;27;1569;-48
2022/11/08 06:21:16;;;;;;;;;;;;;;;;;;5176442;27;1846;-45
2022/11/08 06:23:44;;;;;;;;;;;;;;;;;;5176645;27;2177;-45
2022/11/08 06:26:11;;;;;;;;;;;;;;;;;;5176406;27;1812;-51
2022/11/08 06:28:38;;;;;;;;;;;;;;;;;;5176527;27;2135;-45
2022/11/08 06:31:05;;;;;;;;;;;;;;;;;;5176381;27;1442;-47
2022/11/08 06:33:32;;;;;;;;;;;;;;;;;;5176060;27;2130;-46
2022/11/08 06:35:59;;;;;;;;;;;;;;;;;;5164527;27;2102;-45
2022/11/08 06:38:26;;;;;;;;;;;;;;;;;;5155239;27;1797;-45
2022/11/08 06:40:57;;;;;;;;;;;;;;;;;;5155398;27;2023;-45
2022/11/08 06:43:24;;;;;;;;;;;;;;;;;;5155276;27;1701;-45
2022/11/08 06:45:52;;;;;;;;;;;;;;;;;;5155494;27;1878;-45
2022/11/08 06:48:19;;;;;;;;;;;;;;;;;;5155709;27;1972;-47
2022/11/08 06:50:49;;;;;;;;;;;;;;;;;;5155383;27;1930;-45
2022/11/08 07:00:07;;;;;;;;;;;;;;;;;;5049576;28;1677;-43
2022/11/08 07:02:34;;;;;;;;;;;;;;;;;;5053238;28;939;-45
2022/11/08 07:05:02;;;;;;;;;;;;;;;;;;5052740;28;1221;-43
2022/11/08 07:07:29;;;;;;;;;;;;;;;;;;5051223;28;1914;-46
2022/11/08 07:09:57;;;;;;;;;;;;;;;;;;5052853;28;1306;-46
2022/11/08 07:12:29;;;;;;;;;;;;;;;;;;5052717;28;1140;-46
2022/11/08 07:14:56;;;;;;;;;;;;;;;;;;5052885;28;904;-46
2022/11/08 07:17:24;;;;;;;;;;;;;;;;;;5046838;28;1392;-46
2022/11/08 07:19:51;;;;;;;;;;;;;;;;;;5037824;28;1273;-47
2022/11/08 07:22:18;;;;;;;;;;;;;;;;;;5031685;28;992;-46
2022/11/08 07:24:45;;;;;;;;;;;;;;;;;;5032629;28;1278;-47
2022/11/08 07:27:13;;;;;;;;;;;;;;;;;;5032578;28;1902;-47
2022/11/08 07:29:40;;;;;;;;;;;;;;;;;;5032609;28;1212;-46
2022/11/08 07:32:07;;;;;;;;;;;;;;;;;;5031256;28;941;-47
2022/11/08 07:34:35;;;;;;;;;;;;;;;;;;5031393;28;1097;-47
2022/11/08 07:37:02;;;;;;;;;;;;;;;;;;5032338;28;1292;-49
2022/11/08 07:39:29;;;;;;;;;;;;;;;;;;5032442;28;1137;-50
2022/11/08 07:41:56;;;;;;;;;;;;;;;;;;5032448;28;1037;-46
2022/11/08 07:44:29;;;;;;;;;;;;;;;;;;5032411;28;1067;-46
2022/11/08 07:46:57;;;;;;;;;;;;;;;;;;5032454;28;1978;-47
2022/11/08 07:49:25;;;;;;;;;;;;;;;;;;5032589;28;1174;-47
2022/11/08 07:51:52;;;;;;;;;;;;;;;;;;5032357;28;997;-47
2022/11/08 07:54:19;;;;;;;;;;;;;;;;;;5048080;28;1400;-47
2022/11/08 07:56:46;;;;;;;;;;;;;;;;;;5052041;28;1007;-47
2022/11/08 07:59:13;;;;;;;;;;;;;;;;;;5051689;28;1203;-46
2022/11/08 08:01:41;;;;;;;;;;;;;;;;;;5051973;28;1001;-47
2022/11/08 08:04:11;;;;;;;;;;;;;;;;;;5051916;28;978;-47
2022/11/08 08:14:17;;;;;;;;;;;;;;;;;;5051121;28;1231;-48
2022/11/08 08:21:45;;;;;;;;;;;;;;;;;;5031396;28;933;-44
2022/11/08 08:24:18;;;;;;;;;;;;;;;;;;5030160;28;1420;-47
2022/11/08 08:27:01;;;;;;;;;;;;;;;;;;5031781;28;1983;-47
2022/11/08 08:29:39;;;;;;;;;;;;;;;;;;5031767;28;1317;-46
2022/11/08 08:32:33;;;;;;;;;;;;;;;;;;5031464;28;1047;-45
2022/11/08 08:35:03;;;;;;;;;;;;;;;;;;5031083;28;1542;-48
2022/11/08 08:38:44;;;;;;;;;;;;;;;;;;5031373;28;1123;-46
2022/11/08 08:41:45;;;;;;;;;;;;;;;;;;5031339;28;1075;-47
2022/11/08 08:45:14;;;;;;;;;;;;;;;;;;5030972;28;1228;-47
2022/11/08 08:47:42;;;;;;;;;;;;;;;;;;5050429;28;1906;-47
2022/11/08 08:50:10;;;;;;;;;;;;;;;;;;5050548;28;1179;-47
2022/11/08 08:52:39;;;;;;;;;;;;;;;;;;5050262;28;1348;-47
2022/11/08 08:55:07;;;;;;;;;;;;;;;;;;5050768;28;1079;-49
2022/11/08 08:57:34;;;;;;;;;;;;;;;;;;5050176;28;1027;-47
2022/11/08 09:00:04;;;;;;;;;;;;;;;;;;5050696;28;1359;-46
2022/11/08 09:02:52;;;;;;;;;;;;;;;;;;5050449;28;1612;-48
2022/11/08 09:05:19;;;;;;;;;;;;;;;;;;5050739;28;961;-46
2022/11/08 09:07:47;;;;;;;;;;;;;;;;;;5050328;28;1976;-47
2022/11/08 09:10:15;;;;;;;;;;;;;;;;;;5050177;28;1145;-47
2022/11/08 09:12:42;;;;;;;;;;;;;;;;;;5050600;28;1397;-45
2022/11/08 09:15:09;;;;;;;;;;;;;;;;;;5050008;28;957;-46
2022/11/08 09:17:37;;;;;;;;;;;;;;;;;;5050640;28;988;-47
2022/11/08 09:20:05;;;;;;;;;;;;;;;;;;5050647;28;1232;-46
2022/11/08 09:22:32;;;;;;;;;;;;;;;;;;5050563;28;1011;-49
2022/11/08 09:25:00;;;;;;;;;;;;;;;;;;5049556;28;1402;-47
2022/11/08 09:27:28;;;;;;;;;;;;;;;;;;5050600;28;1971;-46
2022/11/08 09:29:55;;;;;;;;;;;;;;;;;;5050326;28;1216;-48
2022/11/08 09:32:24;;;;;;;;;;;;;;;;;;5050577;28;1063;-46
2022/11/08 09:35:11;;;;;;;;;;;;;;;;;;5050231;28;1067;-48
2022/11/08 09:37:38;;;;;;;;;;;;;;;;;;5050685;28;1000;-48
2022/11/08 09:40:13;;;;;;;;;;;;;;;;;;5050183;28;973;-45
2022/11/08 09:43:01;;;;;;;;;;;;;;;;;;5050459;28;1374;-47
2022/11/08 09:45:36;;;;;;;;;;;;;;;;;;5050352;28;1211;-46
2022/11/08 09:48:04;;;;;;;;;;;;;;;;;;5053977;28;1910;-46
2022/11/08 09:50:40;;;;;;;;;;;;;;;;;;5054403;28;1074;-46
2022/11/08 09:53:14;;;;;;;;;;;;;;;;;;5054061;28;1495;-46
2022/11/08 09:56:03;;;;;;;;;;;;;;;;;;5053957;28;1328;-45
2022/11/08 09:58:34;;;;;;;;;;;;;;;;;;5054133;28;1666;-47
2022/11/08 10:01:02;;;;;;;;;;;;;;;;;;5054453;28;1035;-45
2022/11/08 10:03:29;;;;;;;;;;;;;;;;;;5053011;28;981;-44
2022/11/08 10:05:56;;;;;;;;;;;;;;;;;;5054191;28;929;-45
2022/11/08 10:08:47;;;;;;;;;;;;;;;;;;5052441;28;1906;-45
2022/11/08 10:11:14;;;;;;;;;;;;;;;;;;5034827;28;1192;-47
2022/11/08 10:13:45;;;;;;;;;;;;;;;;;;5053600;28;1018;-45
2022/11/08 10:16:26;;;;;;;;;;;;;;;;;;5053679;28;920;-45
2022/11/08 10:19:06;;;;;;;;;;;;;;;;;;5053494;28;1011;-47
2022/11/08 10:21:36;;;;;;;;;;;;;;;;;;5053816;28;973;-47
2022/11/08 10:24:23;;;;;;;;;;;;;;;;;;5053738;28;1155;-46
2022/11/08 10:26:52;;;;;;;;;;;;;;;;;;5046624;28;1770;-45
2022/11/08 10:29:22;;;;;;;;;;;;;;;;;;5053307;28;1902;-45
2022/11/08 10:31:57;;;;;;;;;;;;;;;;;;5053597;28;901;-45
2022/11/08 10:34:26;;;;;;;;;;;;;;;;;;5052952;28;1056;-45
2022/11/08 10:36:57;;;;;;;;;;;;;;;;;;5053283;28;1183;-48
2022/11/08 10:39:27;;;;;;;;;;;;;;;;;;5052925;28;1126;-45
2022/11/08 10:42:15;;;;;;;;;;;;;;;;;;5053151;28;1124;-45
2022/11/08 10:44:43;;;;;;;;;;;;;;;;;;5053457;28;1141;-45
2022/11/08 10:47:22;;;;;;;;;;;;;;;;;;5053359;28;1369;-45
2022/11/08 10:49:51;;;;;;;;;;;;;;;;;;5053238;28;1943;-45
2022/11/08 10:52:21;;;;;;;;;;;;;;;;;;5053149;28;1008;-45
2022/11/08 10:54:55;;;;;;;;;;;;;;;;;;5031207;28;1000;-45
2022/11/08 10:57:32;;;;;;;;;;;;;;;;;;5029476;28;925;-45
2022/11/08 11:00:19;;;;;;;;;;;;;;;;;;5031392;28;1010;-46
2022/11/08 11:02:50;;;;;;;;;;;;;;;;;;5018184;28;1240;-45
2022/11/08 11:05:22;;;;;;;;;;;;;;;;;;5031467;28;1025;-47
2022/11/08 11:07:52;;;;;;;;;;;;;;;;;;5031416;28;1910;-45
2022/11/08 11:10:24;;;;;;;;;;;;;;;;;;5032794;28;917;-44
2022/11/08 11:13:11;;;;;;;;;;;;;;;;;;5032564;28;1516;-45
2022/11/08 11:15:50;;;;;;;;;;;;;;;;;;5032998;28;1170;-45
2022/11/08 11:18:25;;;;;;;;;;;;;;;;;;5032212;28;1186;-45
2022/11/08 11:21:10;;;;;;;;;;;;;;;;;;5032603;28;909;-44
2022/11/08 11:23:38;;;;;;;;;;;;;;;;;;5032654;28;1352;-44
2022/11/08 11:26:16;;;;;;;;;;;;;;;;;;5032555;28;1016;-45
2022/11/08 11:29:02;;;;;;;;;;;;;;;;;;5032543;28;1910;-45
2022/11/08 11:31:39;;;;;;;;;;;;;;;;;;5032542;28;1079;-45
2022/11/08 11:34:15;;;;;;;;;;;;;;;;;;5039155;28;1072;-45
2022/11/08 11:37:03;;;;;;;;;;;;;;;;;;5052313;28;1174;-45
2022/11/08 11:39:34;;;;;;;;;;;;;;;;;;5039110;28;1352;-45
2022/11/08 11:42:05;;;;;;;;;;;;;;;;;;5051991;28;1385;-46
2022/11/08 11:45:05;;;;;;;;;;;;;;;;;;5051986;28;1044;-45
2022/11/08 11:47:36;;;;;;;;;;;;;;;;;;5052074;28;987;-44
2022/11/08 11:50:22;;;;;;;;;;;;;;;;;;5051987;28;1906;-43
2022/11/08 11:52:49;;;;;;;;;;;;;;;;;;5051617;28;1271;-45
2022/11/08 11:55:16;;;;;;;;;;;;;;;;;;5052112;28;1159;-44
2022/11/08 11:57:54;;;;;;;;;;;;;;;;;;5050413;28;1230;-45
2022/11/08 12:00:22;;;;;;;;;;;;;;;;;;5051781;28;1079;-45
2022/11/08 12:03:06;;;;;;;;;;;;;;;;;;5051635;28;1359;-46
2022/11/08 12:06:00;;;;;;;;;;;;;;;;;;5051443;28;1151;-45
2022/11/08 12:08:39;;;;;;;;;;;;;;;;;;5049657;28;1906;-45
2022/11/08 12:11:25;;;;;;;;;;;;;;;;;;5051210;28;1051;-45
2022/11/08 12:13:55;;;;;;;;;;;;;;;;;;5051677;28;904;-44
2022/11/08 12:16:35;;;;;;;;;;;;;;;;;;5051581;28;943;-44
2022/11/08 12:19:08;;;;;;;;;;;;;;;;;;5051534;28;1018;-44
2022/11/08 12:21:46;;;;;;;;;;;;;;;;;;5051497;28;901;-44
2022/11/08 12:24:28;;;;;;;;;;;;;;;;;;5051165;28;1180;-44
2022/11/08 12:27:01;;;;;;;;;;;;;;;;;;5051463;28;1143;-44
2022/11/08 12:29:36;;;;;;;;;;;;;;;;;;5051180;28;1906;-45
2022/11/08 12:32:21;;;;;;;;;;;;;;;;;;5051159;28;901;-45
2022/11/08 12:35:02;;;;;;;;;;;;;;;;;;5051359;28;1331;-45
2022/11/08 12:37:33;;;;;;;;;;;;;;;;;;5050927;28;1087;-45
2022/11/08 12:40:16;;;;;;;;;;;;;;;;;;5051240;28;933;-44
2022/11/08 12:43:04;;;;;;;;;;;;;;;;;;5051063;28;1188;-45
2022/11/08 12:45:37;;;;;;;;;;;;;;;;;;5050985;28;933;-45
2022/11/08 12:48:05;;;;;;;;;;;;;;;;;;5050866;28;1976;-44
2022/11/08 12:50:54;;;;;;;;;;;;;;;;;;5051079;28;1328;-46
2022/11/08 12:53:29;;;;;;;;;;;;;;;;;;5050983;28;1435;-45
2022/11/08 12:55:57;;;;;;;;;;;;;;;;;;5049714;28;1251;-44
2022/11/08 12:58:34;;;;;;;;;;;;;;;;;;5050790;28;1231;-45
2022/11/08 13:01:04;;;;;;;;;;;;;;;;;;5051042;28;965;-46
2022/11/08 13:03:41;;;;;;;;;;;;;;;;;;5050955;28;1470;-44
2022/11/08 13:06:12;;;;;;;;;;;;;;;;;;5050654;28;1019;-45
2022/11/08 13:08:43;;;;;;;;;;;;;;;;;;5050746;28;1969;-45
2022/11/08 13:11:14;;;;;;;;;;;;;;;;;;5051040;28;1104;-47
2022/11/08 13:13:48;;;;;;;;;;;;;;;;;;5050801;28;1013;-46
2022/11/08 13:16:19;;;;;;;;;;;;;;;;;;5050783;28;1216;-45
2022/11/08 13:18:48;;;;;;;;;;;;;;;;;;5050661;28;1014;-44
2022/11/08 13:21:24;;;;;;;;;;;;;;;;;;5053312;28;893;-47
2022/11/08 13:24:01;;;;;;;;;;;;;;;;;;5054777;28;1342;-45
2022/11/08 13:26:40;;;;;;;;;;;;;;;;;;5054731;28;1203;-44
2022/11/08 13:29:17;;;;;;;;;;;;;;;;;;5054756;28;1906;-45
2022/11/08 13:31:56;;;;;;;;;;;;;;;;;;5055071;28;1083;-46
2022/11/08 13:34:42;;;;;;;;;;;;;;;;;;5053201;28;958;-44
2022/11/08 13:37:27;;;;;;;;;;;;;;;;;;5054657;28;994;-45
2022/11/08 13:40:13;;;;;;;;;;;;;;;;;;5054650;28;1330;-46
2022/11/08 13:42:57;;;;;;;;;;;;;;;;;;5054612;28;1081;-45
2022/11/08 13:45:26;;;;;;;;;;;;;;;;;;5054527;28;1173;-45
2022/11/08 13:47:55;;;;;;;;;;;;;;;;;;5054198;28;1202;-44
2022/11/08 13:50:28;;;;;;;;;;;;;;;;;;5054043;28;1917;-46
2022/11/08 13:53:01;;;;;;;;;;;;;;;;;;5054315;28;1391;-44
2022/11/08 13:55:40;;;;;;;;;;;;;;;;;;5054095;28;1158;-46
2022/11/08 13:58:26;;;;;;;;;;;;;;;;;;5053901;28;1167;-50
2022/11/08 14:00:53;;;;;;;;;;;;;;;;;;5054329;28;1086;-46
2022/11/08 14:03:32;;;;;;;;;;;;;;;;;;5053985;28;1001;-46
2022/11/08 14:06:01;;;;;;;;;;;;;;;;;;5054045;28;968;-46
2022/11/08 14:08:29;;;;;;;;;;;;;;;;;;5053974;28;1914;-45
2022/11/08 14:10:59;;;;;;;;;;;;;;;;;;5053790;28;1027;-46
2022/11/08 14:13:39;;;;;;;;;;;;;;;;;;5053019;28;909;-44
2022/11/08 14:16:11;;;;;;;;;;;;;;;;;;5052904;28;973;-44
2022/11/08 14:18:38;;;;;;;;;;;;;;;;;;5052904;28;1163;-43
2022/11/08 14:21:07;;;;;;;;;;;;;;;;;;5053149;28;1283;-44
2022/11/08 14:23:38;;;;;;;;;;;;;;;;;;5053236;28;982;-45
2022/11/08 14:26:14;;;;;;;;;;;;;;;;;;5053005;28;1011;-44
2022/11/08 14:28:43;;;;;;;;;;;;;;;;;;5053428;28;1973;-43
2022/11/08 14:31:30;;;;;;;;;;;;;;;;;;5053313;28;1102;-44
2022/11/08 14:33:58;;;;;;;;;;;;;;;;;;5052697;28;1108;-45
2022/11/08 14:36:29;;;;;;;;;;;;;;;;;;5053396;28;870;-45
2022/11/08 14:39:17;;;;;;;;;;;;;;;;;;5052995;28;1066;-47
2022/11/08 14:41:55;;;;;;;;;;;;;;;;;;5053569;28;964;-45
2022/11/08 14:44:23;;;;;;;;;;;;;;;;;;5053210;28;902;-44
2022/11/08 14:46:51;;;;;;;;;;;;;;;;;;5053607;28;1130;-44
2022/11/08 14:49:21;;;;;;;;;;;;;;;;;;5053439;28;1969;-45
2022/11/08 14:52:01;;;;;;;;;;;;;;;;;;5053425;28;1156;-45
2022/11/08 14:54:37;;;;;;;;;;;;;;;;;;5052885;28;1336;-45
2022/11/08 14:57:24;;;;;;;;;;;;;;;;;;5053116;28;965;-47
2022/11/08 14:59:52;;;;;;;;;;;;;;;;;;5052750;28;1195;-47
2022/11/08 15:02:22;;;;;;;;;;;;;;;;;;5052961;28;945;-45
2022/11/08 15:04:50;;;;;;;;;;;;;;;;;;5053182;28;1109;-44
2022/11/08 15:07:18;;;;;;;;;;;;;;;;;;5053284;28;1176;-46
2022/11/08 15:09:46;;;;;;;;;;;;;;;;;;5052863;28;1914;-45
2022/11/08 15:12:15;;;;;;;;;;;;;;;;;;5052991;28;1110;-45
2022/11/08 15:14:47;;;;;;;;;;;;;;;;;;5052789;28;1194;-45
2022/11/08 15:17:34;;;;;;;;;;;;;;;;;;5052695;28;1309;-45
2022/11/08 15:20:03;;;;;;;;;;;;;;;;;;5052583;28;1119;-45
2022/11/08 15:22:33;;;;;;;;;;;;;;;;;;5052742;28;1232;-46
2022/11/08 15:25:12;;;;;;;;;;;;;;;;;;5052357;28;933;-44
2022/11/08 15:27:47;;;;;;;;;;;;;;;;;;5051264;28;1019;-44
2022/11/08 15:30:19;;;;;;;;;;;;;;;;;;5052344;28;1906;-45
2022/11/08 15:32:47;;;;;;;;;;;;;;;;;;5052608;28;965;-44
2022/11/08 15:35:32;;;;;;;;;;;;;;;;;;5052290;28;1318;-45
2022/11/08 15:38:01;;;;;;;;;;;;;;;;;;5052457;28;1241;-45
2022/11/08 15:40:30;;;;;;;;;;;;;;;;;;5052172;28;1079;-46
2022/11/08 15:42:59;;;;;;;;;;;;;;;;;;5052227;28;1088;-46
2022/11/08 15:45:30;;;;;;;;;;;;;;;;;;5050934;28;1178;-47
2022/11/08 15:48:01;;;;;;;;;;;;;;;;;;5051862;28;925;-45
2022/11/08 15:50:30;;;;;;;;;;;;;;;;;;5052073;28;1981;-44
2022/11/08 15:52:58;;;;;;;;;;;;;;;;;;5051945;28;1352;-46
2022/11/08 15:55:28;;;;;;;;;;;;;;;;;;5051987;28;945;-45
2022/11/08 15:57:57;;;;;;;;;;;;;;;;;;5051638;28;1139;-46
2022/11/08 16:00:28;;;;;;;;;;;;;;;;;;5051667;28;1084;-44
2022/11/08 16:02:56;;;;;;;;;;;;;;;;;;5051538;28;988;-44
2022/11/08 16:05:24;;;;;;;;;;;;;;;;;;5052049;28;979;-46
2022/11/08 16:07:52;;;;;;;;;;;;;;;;;;5051693;28;1024;-45
2022/11/08 16:10:38;;;;;;;;;;;;;;;;;;5051597;28;1971;-46
2022/11/08 16:13:06;;;;;;;;;;;;;;;;;;5051203;28;1229;-45
2022/11/08 16:15:34;;;;;;;;;;;;;;;;;;5051608;28;940;-45
2022/11/08 16:18:01;;;;;;;;;;;;;;;;;;5051532;28;1145;-47
2022/11/08 16:20:28;;;;;;;;;;;;;;;;;;5051669;28;993;-46
2022/11/08 16:22:56;;;;;;;;;;;;;;;;;;5050395;28;1409;-45
2022/11/08 16:25:24;;;;;;;;;;;;;;;;;;5051357;28;923;-46
2022/11/08 16:27:59;;;;;;;;;;;;;;;;;;5051597;28;977;-45
2022/11/08 16:30:30;;;;;;;;;;;;;;;;;;5051165;28;1914;-46
2022/11/08 16:32:57;;;;;;;;;;;;;;;;;;5051370;28;1025;-45
2022/11/08 16:35:25;;;;;;;;;;;;;;;;;;5051301;28;1392;-47
2022/11/08 16:37:53;;;;;;;;;;;;;;;;;;5050735;28;1113;-45
2022/11/08 16:40:21;;;;;;;;;;;;;;;;;;5051026;28;1227;-48
2022/11/08 16:42:50;;;;;;;;;;;;;;;;;;5051276;28;1164;-45
2022/11/08 16:45:18;;;;;;;;;;;;;;;;;;5051164;28;927;-45
2022/11/08 16:48:03;;;;;;;;;;;;;;;;;;5050826;28;948;-45
2022/11/08 16:50:31;;;;;;;;;;;;;;;;;;5050571;28;1973;-44
2022/11/08 16:52:58;;;;;;;;;;;;;;;;;;5051044;28;1360;-45
2022/11/08 16:55:25;;;;;;;;;;;;;;;;;;5050584;28;1396;-45
2022/11/08 16:57:53;;;;;;;;;;;;;;;;;;5050952;28;1186;-45
2022/11/08 17:00:20;;;;;;;;;;;;;;;;;;5049669;28;1778;-44
2022/11/08 17:02:48;;;;;;;;;;;;;;;;;;5050732;28;1071;-45
2022/11/08 17:05:16;;;;;;;;;;;;;;;;;;5049340;28;1407;-45
2022/11/08 17:07:44;;;;;;;;;;;;;;;;;;5050899;28;1072;-45
2022/11/08 17:10:15;;;;;;;;;;;;;;;;;;5050615;28;1914;-45
2022/11/08 17:12:43;;;;;;;;;;;;;;;;;;5050558;28;1251;-45
2022/11/08 17:15:11;;;;;;;;;;;;;;;;;;5050569;28;1121;-48
2022/11/08 17:17:38;;;;;;;;;;;;;;;;;;5050731;28;1469;-44
2022/11/08 17:20:06;;;;;;;;;;;;;;;;;;5050481;28;1189;-47
2022/11/08 17:22:34;;;;;;;;;;;;;;;;;;5050793;28;927;-47
2022/11/08 17:25:01;;;;;;;;;;;;;;;;;;5050652;28;959;-45
2022/11/08 17:27:28;;;;;;;;;;;;;;;;;;5050559;28;1443;-47
2022/11/08 17:29:55;;;;;;;;;;;;;;;;;;5050244;28;1981;-45
2022/11/08 17:32:23;;;;;;;;;;;;;;;;;;5050489;28;889;-45
2022/11/08 17:34:50;;;;;;;;;;;;;;;;;;5050172;28;1587;-44
2022/11/08 17:37:17;;;;;;;;;;;;;;;;;;5050579;28;993;-45
2022/11/08 17:39:44;;;;;;;;;;;;;;;;;;5050614;28;1274;-45
2022/11/08 17:42:11;;;;;;;;;;;;;;;;;;5050418;28;1034;-45
2022/11/08 17:44:39;;;;;;;;;;;;;;;;;;5050370;28;1120;-45
2022/11/08 17:47:06;;;;;;;;;;;;;;;;;;5050502;28;1068;-45
2022/11/08 17:49:33;;;;;;;;;;;;;;;;;;5050546;28;1906;-45
2022/11/08 17:52:04;;;;;;;;;;;;;;;;;;5050351;28;1070;-45
2022/11/08 17:54:31;;;;;;;;;;;;;;;;;;5050477;28;1348;-58
2022/11/08 17:56:59;;;;;;;;;;;;;;;;;;5050055;28;901;-50
2022/11/08 17:59:26;;;;;;;;;;;;;;;;;;5050227;28;1429;-47
2022/11/08 18:01:53;;;;;;;;;;;;;;;;;;5050267;28;1298;-46
2022/11/08 18:04:20;;;;;;;;;;;;;;;;;;5050132;28;1143;-46
2022/11/08 18:06:47;;;;;;;;;;;;;;;;;;5050352;28;957;-45
2022/11/08 18:09:14;;;;;;;;;;;;;;;;;;5053727;28;1131;-45
2022/11/08 18:11:46;;;;;;;;;;;;;;;;;;5053785;28;1991;-46